Latest Weather Observations for Thredbo Top Station

IDN60901

Issued at 7:41 pm EST Thursday 2 July 2015 (issued every 10 minutes, with the page automatically refreshed every 10 minutes)

About weather observations | Map of Canberra area stations | Latest observations for Canberra area | Other Formats
Station Details ID: 071032 Name: THREDBO AWS Lat: -36.49 Lon: 148.29 Height: 1957.0 m
Data from the previous 72 hours. | See also: Recent months at Thredbo Top Station
Date/Time
EST
Tmp

°C
App
Tmp
°C
Dew
Point
°C
Rel
Hum
%
Delta-T

°C
Wind Press
QNH
hPa
Press
MSL
hPa
Rain
since
9 am
mm
Dir
 
Spd
km/h
Gust
km/h
Spd
kts
Gust
kts
02/07:30pm -6.4 -13.8 -6.9 96 -0.1 SSW 24 41 13 22 - - 0.0
02/07:10pm -6.6 -15.5 -7.3 95 0.0 SSW 32 52 17 28 - - 0.0
02/07:00pm -6.7 -14.5 -7.4 95 0.0 SSW 26 39 14 21 - - 0.0
02/06:32pm -6.8 -15.9 -7.5 95 0.0 SSW 33 54 18 29 - - 0.0
02/06:30pm -6.9 -15.8 -7.6 95 0.0 SSW 32 48 17 26 - - 0.0
02/06:06pm -6.4 -16.6 -6.9 96 -0.1 SSW 39 57 21 31 - - 0.0
02/05:54pm -6.5 -16.3 -7.0 96 -0.1 SSW 37 56 20 30 - - 0.0
02/05:30pm -6.3 -14.8 -6.8 96 -0.1 SW 30 41 16 22 - - 0.0
02/05:00pm -6.6 -17.6 -7.3 95 0.0 SW 43 61 23 33 - - 0.0
02/04:30pm -6.6 -15.5 -7.3 95 0.0 SSW 32 56 17 30 - - 0.0
02/04:00pm -6.5 -16.7 -7.2 95 0.0 SSW 39 57 21 31 - - 0.0
02/03:40pm -6.2 -15.1 -6.9 95 0.0 SSW 32 54 17 29 - - 0.0
02/03:30pm -6.1 -15.5 -6.6 96 -0.1 SSW 35 52 19 28 - - 0.0
02/03:26pm -6.0 -15.0 -6.5 96 -0.1 SW 33 52 18 28 - - 0.0
02/03:00pm -5.5 -13.9 -5.9 97 -0.1 SW 30 43 16 23 - - 0.0
02/02:39pm -5.4 -13.4 -5.8 97 -0.1 SW 28 48 15 26 - - 0.0
02/02:30pm -5.1 -13.1 -5.5 97 -0.1 WSW 28 41 15 22 - - 0.0
02/02:08pm -5.2 -14.5 -5.6 97 -0.1 SW 35 54 19 29 - - 0.0
02/02:00pm -5.2 -14.5 -5.6 97 -0.1 SW 35 54 19 29 - - 0.0
02/01:59pm -5.1 -14.4 -5.5 97 -0.1 WSW 35 54 19 29 - - 0.0
02/01:31pm -4.5 -12.8 -4.8 98 -0.1 WNW 30 48 16 26 - - 0.0
02/01:30pm -4.5 -13.2 -4.8 98 -0.1 WNW 32 48 17 26 - - 0.0
02/01:00pm -4.8 -13.1 -5.1 98 -0.1 W 30 43 16 23 - - 0.0
02/12:34pm -4.3 -14.7 -4.6 98 -0.1 WNW 41 67 22 36 - - 0.0
02/12:30pm -4.2 -14.9 -4.5 98 -0.1 WNW 43 67 23 36 - - 0.0
02/12:26pm -4.3 -13.9 -4.6 98 -0.1 WNW 37 67 20 36 - - 0.0
02/12:17pm -4.0 -12.6 -4.3 98 -0.1 NW 32 46 17 25 - - 0.0
02/12:00pm -3.9 -12.7 -4.2 98 -0.1 NW 33 48 18 26 - - 0.0
02/11:40am -3.9 -13.5 -4.2 98 -0.1 NNW 37 57 20 31 - - 0.0
02/11:30am -4.1 -12.3 -4.4 98 -0.1 NW 30 46 16 25 - - 0.0
02/11:00am -4.2 -12.8 -4.5 98 -0.1 NW 32 52 17 28 - - 0.0
02/10:45am -3.9 -12.1 -4.2 98 -0.1 NW 30 48 16 26 - - 0.0
02/10:30am -3.7 -12.8 -4.0 98 -0.1 NNW 35 48 19 26 1016.4 1021.3 0.0
02/10:11am -2.8 -12.2 -2.9 99 -0.1 NNW 37 56 20 30 1016.0 1020.9 0.0
02/10:00am -2.8 -13.3 -2.9 99 -0.1 NNW 43 56 23 30 1016.0 1020.9 0.0
02/09:30am -2.7 -13.8 -2.8 99 -0.1 NNW 46 65 25 35 1016.4 1021.3 0.0
02/09:00am -2.4 -14.2 -2.5 99 -0.1 NW 50 82 27 44 1016.4 1021.3 0.0
02/08:56am -2.2 -13.6 -2.3 99 -0.1 NW 48 82 26 44 1016.4 1021.3 0.0
02/08:37am -2.2 -12.7 -2.3 99 -0.1 NW 43 67 23 36 1016.5 1021.4 0.0
02/08:30am -2.4 -12.5 -2.5 99 -0.1 NW 41 57 22 31 1016.4 1021.3 0.0
02/08:03am -2.6 -12.7 -2.7 99 -0.1 NNW 41 59 22 32 1016.6 1021.5 0.0
02/08:00am -2.6 -13.1 -2.7 99 -0.1 NNW 43 59 23 32 1016.6 1021.5 0.0
02/07:38am -2.2 -12.7 -2.3 99 -0.1 NW 43 61 23 33 1016.8 1021.8 0.0
02/07:30am -2.3 -13.0 -2.4 99 -0.1 NW 44 57 24 31 1016.5 1021.4 0.0
02/07:02am -2.5 -12.2 -2.6 99 -0.1 NW 39 57 21 31 1016.6 1021.5 0.0
02/07:00am -2.5 -12.2 -2.6 99 -0.1 NW 39 54 21 29 1016.6 1021.5 0.0
02/06:30am -2.6 -14.4 -2.7 99 -0.1 NW 50 69 27 37 1017.0 1021.9 0.0
02/06:18am -2.6 -13.7 -2.7 99 -0.1 NW 46 65 25 35 1016.7 1021.7 0.0
02/05:30am -2.7 -15.7 -2.8 99 -0.1 NW 56 74 30 40 1017.0 1021.9 0.0
02/05:00am -3.3 -15.2 -3.4 99 -0.1 WNW 50 76 27 41 1017.3 1022.2 0.0
02/04:30am -3.7 -16.8 -4.0 98 -0.1 WNW 56 76 30 41 1017.4 1022.4 0.0
02/04:01am -4.0 -18.1 -4.3 98 -0.1 NW 61 83 33 45 1016.7 1021.7 0.0
02/04:00am -4.0 -17.7 -4.3 98 -0.1 NW 59 74 32 40 1016.7 1021.7 0.0
02/03:36am -3.5 -17.6 -3.8 98 -0.1 NW 61 82 33 44 1017.2 1022.1 0.0
02/03:30am -3.7 -17.8 -4.0 98 -0.1 NW 61 78 33 42 1017.2 1022.1 0.0
02/03:08am -3.8 -16.2 -4.1 98 -0.1 WNW 52 70 28 38 1017.3 1022.2 0.0
02/03:00am -4.0 -16.8 -4.3 98 -0.1 NW 54 69 29 37 1017.6 1022.6 0.0
02/02:32am -3.5 -15.5 -3.8 98 -0.1 WNW 50 76 27 41 1018.2 1023.2 0.0
02/02:30am -4.1 -16.1 -4.4 98 -0.1 WNW 50 67 27 36 1018.3 1023.3 0.0
02/02:03am -3.3 -15.3 -3.6 98 0.0 WNW 50 69 27 37 1018.2 1023.2 0.0
02/02:00am -3.4 -15.3 -3.5 99 -0.1 WNW 50 65 27 35 1018.2 1023.2 0.0
02/01:30am -3.7 -14.9 -4.0 98 -0.1 WNW 46 59 25 32 1018.6 1023.6 0.0
02/01:18am -4.1 -15.4 -4.4 98 -0.1 WNW 46 65 25 35 1018.8 1023.8 0.0
02/01:00am -4.1 -14.8 -4.4 98 -0.1 WNW 43 57 23 31 1019.1 1024.1 0.0
02/12:31am -4.2 -15.9 -4.3 99 -0.1 WNW 48 67 26 36 1019.4 1024.4 0.0
02/12:30am -4.2 -15.9 -4.3 99 -0.1 WNW 48 61 26 33 1019.5 1024.5 0.0
 
Date/Time
EST
Tmp

°C
App
Tmp
°C
Dew
Point
°C
Rel
Hum
%
Delta-T

°C
Wind Press
QNH
hPa
Press
MSL
hPa
Rain
since
9 am
mm
Dir
 
Spd
km/h
Gust
km/h
Spd
kts
Gust
kts
01/11:30pm -4.3 -16.0 -8.4 73 1.1 NW 46 56 25 30 1019.8 1024.9 0.0
01/11:00pm -2.6 -12.5 -12.3 47 2.6 NW 35 46 19 25 1019.9 1025.0 0.0
01/10:30pm -3.0 -12.8 -11.9 50 2.4 WNW 35 44 19 24 1020.2 1025.2 0.0
01/10:00pm -4.2 -14.3 -9.8 65 1.5 WNW 37 48 20 26 1020.4 1025.4 0.0
01/09:30pm -5.8 -16.1 -7.9 85 0.4 WNW 39 50 21 27 1020.8 1025.9 0.0
01/09:00pm -4.4 -13.6 -9.0 70 1.2 WNW 33 39 18 21 1021.0 1026.0 0.0
01/08:30pm -3.6 -13.3 -9.8 62 1.7 WNW 35 43 19 23 1020.7 1025.8 0.0
01/08:00pm -3.5 -12.8 -9.9 61 1.7 WNW 33 41 18 22 1021.0 1026.0 0.0
01/07:30pm -2.4 -11.7 -12.1 47 2.6 WNW 32 43 17 23 1021.0 1026.0 0.0
01/07:00pm -5.1 -16.1 -6.9 87 0.4 NW 43 56 23 30 1021.1 1026.2 0.0
01/06:30pm -5.2 -16.3 -5.9 95 0.0 NW 44 57 24 31 1021.2 1026.3 0.0
01/06:00pm -2.1 -14.1 -12.4 45 2.8 NW 46 56 25 30 1020.4 1025.4 0.0
01/05:30pm -0.8 -12.1 -17.0 28 4.0 WNW 41 52 22 28 1020.3 1025.3 0.0
01/05:00pm -0.5 -12.2 -17.6 26 4.2 NW 43 56 23 30 1020.3 1025.3 0.0
01/04:30pm 0.1 -11.6 -18.5 23 4.6 NW 43 52 23 28 1020.4 1025.4 0.0
01/04:00pm 0.7 -9.5 -19.1 21 4.8 NW 35 46 19 25 1020.6 1025.7 0.0
01/03:30pm 1.5 -7.3 -17.9 22 5.0 WNW 28 43 15 23 1020.5 1025.6 0.0
01/03:00pm 1.5 -8.1 -15.0 28 4.6 NW 33 44 18 24 1020.4 1025.4 0.0
01/02:30pm 1.5 -7.8 -12.3 35 4.1 NW 32 41 17 22 1020.8 1025.9 0.0
01/02:00pm 3.1 -4.0 -13.2 29 4.9 NW 20 32 11 17 1020.8 1025.9 0.0
01/01:30pm 3.4 -4.9 -14.2 26 5.2 NW 26 33 14 18 1021.0 1026.0 0.0
01/01:00pm 2.7 -4.9 -15.3 25 5.1 NW 22 30 12 16 1021.9 1027.0 0.0
01/12:30pm 3.1 -4.4 -15.0 25 5.2 NW 22 32 12 17 1022.4 1027.6 0.0
01/12:00pm 3.8 -3.7 -13.4 27 5.3 NW 22 28 12 15 1022.9 1028.1 0.0
01/11:30am 4.3 -1.5 -14.4 24 5.6 W 13 20 7 11 1023.5 1028.6 0.0
01/11:00am 4.5 -0.2 -15.3 22 5.8 WSW 7 13 4 7 1023.7 1028.9 0.0
01/10:30am 3.5 -1.4 -12.4 30 5.0 SSW 9 17 5 9 1024.5 1029.7 0.0
01/10:00am 2.7 -2.2 -11.9 33 4.5 SW 9 13 5 7 1024.7 1029.9 0.0
01/09:30am 1.6 -3.6 -10.8 39 3.9 SW 11 17 6 9 1025.0 1029.2 0.0
01/09:00am 0.9 -3.8 -8.8 48 3.1 SW 9 15 5 8 1025.0 1029.2 0.0
01/08:30am 0.0 -4.7 -9.7 48 3.0 SW 9 13 5 7 1025.2 1029.5 0.0
01/08:00am -0.8 -7.1 -9.6 51 2.6 SW 17 20 9 11 1025.1 1029.3 0.0
01/07:30am -1.7 -7.2 -9.1 57 2.2 SW 13 20 7 11 1024.7 1029.0 0.0
01/07:00am -2.3 -8.1 -9.2 59 2.0 SW 15 19 8 10 1024.5 1028.7 0.0
01/06:30am -5.7 -9.9 -7.5 87 0.3 SW 7 11 4 6 1024.5 1028.7 0.0
01/06:00am -5.5 -10.0 -6.9 90 0.2 SW 9 13 5 7 1024.3 1028.5 0.0
01/05:30am -6.6 -9.8 -7.0 97 -0.1 SSE 2 4 1 2 1024.2 1028.4 0.0
01/05:00am -6.4 -10.5 -6.7 98 -0.2 W 7 9 4 5 1024.0 1028.3 0.0
01/04:30am -6.2 -9.7 -6.5 98 -0.1 WSW 4 9 2 5 1024.2 1028.4 0.0
01/04:00am -6.2 -11.0 -6.5 98 -0.1 SW 11 17 6 9 1024.2 1028.4 0.0
01/03:30am -6.7 -10.8 -7.0 98 -0.2 SSW 7 13 4 7 1024.2 1028.4 0.0
01/03:00am -6.2 -9.6 -9.6 77 0.7 ENE 2 6 1 3 1024.3 1028.5 0.0
01/02:30am -5.9 -9.6 -8.5 82 0.5 SSW 4 9 2 5 1024.5 1028.7 0.0
01/02:00am -5.8 -9.1 -7.9 85 0.4 NNW 2 6 1 3 1024.5 1028.7 0.0
01/01:30am -7.0 -10.9 -11.2 72 0.9 NNW 4 7 2 4 1024.6 1028.9 0.0
01/01:00am -7.5 -11.3 -10.0 82 0.4 N 4 9 2 5 1024.7 1029.0 0.0
01/12:30am -5.9 -10.4 -7.0 92 0.1 WSW 9 15 5 8 1025.1 1029.3 0.0
01/12:00am -5.4 -9.8 -5.7 98 -0.1 WSW 9 13 5 7 1025.1 1029.3 0.0
 
Date/Time
EST
Tmp

°C
App
Tmp
°C
Dew
Point
°C
Rel
Hum
%
Delta-T

°C
Wind Press
QNH
hPa
Press
MSL
hPa
Rain
since
9 am
mm
Dir
 
Spd
km/h
Gust
km/h
Spd
kts
Gust
kts
30/11:30pm -5.4 -11.3 -6.1 95 0.0 SW 17 20 9 11 1025.1 1029.3 0.0
30/11:00pm -6.0 -9.4 -9.5 76 0.8 WNW 2 7 1 4 1025.2 1029.5 0.0
30/10:30pm -6.6 -11.3 -9.5 80 0.6 NNW 9 11 5 6 1025.1 1029.3 0.0
30/10:00pm -6.2 -9.9 -9.1 80 0.6 N 4 7 2 4 1025.2 1029.5 0.0
30/09:30pm -4.8 -7.9 -6.3 89 0.3 N 2 6 1 3 1025.1 1029.3 0.0
30/09:00pm -4.4 -8.3 -5.1 95 0.0 W 7 13 4 7 1025.2 1029.5 0.0
30/08:30pm -3.7 -8.3 -4.0 98 -0.1 SW 11 15 6 8 1025.2 1029.5 0.0
30/08:00pm -3.6 -8.2 -4.0 97 0.0 SSW 11 17 6 9 1025.1 1029.3 0.0
30/07:30pm -4.5 -8.6 -6.5 86 0.4 SSW 7 13 4 7 1025.0 1029.2 0.0
30/07:00pm -3.6 -6.2 -5.3 88 0.4 CALM 0 4 0 2 1024.7 1029.0 0.0
30/06:30pm -2.2 -5.2 -4.7 83 0.8 ENE 2 4 1 2 1024.5 1028.7 0.0
30/06:00pm -2.4 -5.1 -5.5 79 0.9 CALM 0 4 0 2 1024.4 1028.6 0.0
30/05:30pm -2.0 -5.4 -5.5 77 1.1 SE 4 7 2 4 1023.9 1028.2 0.0
30/05:00pm -1.9 -6.0 -9.0 58 2.1 SSW 6 11 3 6 1023.6 1027.8 0.0
30/04:30pm -0.8 -4.6 -4.0 79 1.1 S 7 9 4 5 1023.6 1027.8 0.0
30/04:00pm -0.5 -4.2 -3.0 83 0.9 S 7 11 4 6 1023.5 1027.7 0.0
30/03:30pm 0.4 -4.1 -3.0 78 1.3 SSW 11 15 6 8 1023.1 1027.3 0.0
30/03:00pm 2.1 -2.3 -10.4 39 4.0 ESE 7 13 4 7 1022.9 1027.1 0.0
30/02:30pm 3.3 -0.5 -16.9 21 5.6 E 2 6 1 3 1022.7 1026.9 0.0
30/02:00pm 3.1 -1.1 -16.5 22 5.4 W 4 11 2 6 1022.9 1027.1 0.0
30/01:30pm 2.8 -2.3 -15.7 24 5.2 WNW 9 17 5 9 1023.0 1027.2 0.0
30/01:00pm 2.8 -3.5 -15.7 24 5.2 NNW 15 24 8 13 1023.1 1027.3 0.0
30/12:30pm 3.1 -3.6 -17.1 21 5.5 NNW 17 24 9 13 1023.5 1027.7 0.0
30/12:00pm 2.8 -3.9 -16.2 23 5.3 NNW 17 26 9 14 1024.0 1028.3 0.0
30/11:30am 2.9 -3.7 -14.2 27 5.0 NW 17 26 9 14 1024.4 1028.6 0.0
30/11:00am 2.2 -6.0 -13.1 31 4.5 NNW 26 33 14 18 1024.7 1029.0 0.0
30/10:30am 1.3 -8.3 -13.9 31 4.3 NW 33 39 18 21 1025.2 1029.5 0.0
30/10:00am 1.3 -8.1 -13.5 32 4.2 NW 32 44 17 24 1025.2 1029.5 0.0
30/09:30am 0.6 -10.2 -16.2 27 4.4 NNW 39 46 21 25 1025.3 1029.6 0.0
30/09:00am 0.4 -10.5 -17.8 24 4.6 NNW 39 43 21 23 1025.5 1029.8 0.0
30/08:30am -0.3 -10.4 -17.4 26 4.3 NNW 35 41 19 22 1025.6 1029.9 0.0
30/08:00am -0.1 -10.3 -20.3 20 4.7 NW 35 46 19 25 1025.8 1030.0 0.0
30/07:30am -1.3 -11.1 -18.3 26 4.0 NW 33 43 18 23 1025.9 1030.2 0.0
30/07:00am -1.8 -11.5 -9.6 55 2.3 NW 35 43 19 23 1026.0 1030.3 0.0
30/06:30am -2.6 -11.2 -4.3 88 0.5 NW 32 39 17 21 1025.9 1030.2 0.0
30/06:00am -2.4 -11.0 -4.1 88 0.5 NW 32 39 17 21 1025.8 1030.0 0.0
30/05:30am -2.1 -11.6 -4.0 87 0.6 NNW 37 46 20 25 1025.6 1029.9 0.0
30/05:00am -2.2 -11.3 -3.8 89 0.5 NNW 35 46 19 25 1025.6 1029.9 0.0
30/04:30am -2.0 -11.0 -5.8 75 1.2 NNW 33 39 18 21 1025.9 1030.2 0.0
30/04:00am -3.3 -12.2 -5.3 86 0.5 N 33 41 18 22 1026.0 1030.3 0.0
30/03:30am -2.0 -11.7 -9.8 55 2.3 N 35 44 19 24 1026.3 1030.6 0.0
30/03:00am -1.0 -11.1 -17.2 28 4.0 NNW 35 44 19 24 1026.6 1030.9 0.0
30/02:30am -1.2 -10.7 -13.0 40 3.2 N 33 35 18 19 1026.7 1031.0 0.0
30/02:00am -1.2 -9.1 -14.3 36 3.4 N 24 26 13 14 1026.9 1031.2 0.0
30/01:30am -1.6 -10.9 -11.7 46 2.8 N 32 33 17 18 1026.9 1031.2 0.0
30/01:00am -1.6 -10.3 -15.7 33 3.5 NNW 28 32 15 17 1027.0 1031.3 0.0
30/12:30am -3.7 -11.3 -15.3 40 2.8 NNW 22 24 12 13 1027.4 1031.7 0.0
30/12:00am -3.0 -10.2 -15.0 39 2.9 NNW 20 24 11 13 1027.7 1032.1 0.0
 
Date/Time
EST
Tmp

°C
App
Tmp
°C
Dew
Point
°C
Rel
Hum
%
Delta-T

°C
Wind Press
QNH
hPa
Press
MSL
hPa
Rain
since
9 am
mm
Dir
 
Spd
km/h
Gust
km/h
Spd
kts
Gust
kts
29/11:30pm -1.1 -7.7 -15.7 32 3.7 N 17 19 9 10 1028.0 1032.4 0.0
29/11:00pm -1.0 -7.6 -15.9 31 3.8 N 17 20 9 11 1028.2 1032.5 0.0
29/10:30pm -0.5 -7.5 -15.5 31 3.9 N 19 24 10 13 1028.6 1033.0 0.0
29/10:00pm -1.5 -8.1 -14.9 35 3.4 N 17 20 9 11 1029.0 1033.4 0.0
29/09:30pm -0.6 -7.6 -15.6 31 3.9 N 19 22 10 12 1029.3 1033.7 0.0
29/09:00pm 0.3 -5.5 -14.8 31 4.1 NNE 13 20 7 11 1029.5 1034.0 0.0
29/08:30pm -0.3 -6.8 -13.9 35 3.7 N 17 19 9 10 1029.6 1034.1 0.0
29/08:00pm -1.2 -8.1 -13.0 40 3.2 N 19 20 10 11 1029.9 1034.3 0.0

Latest Capital City Observations: Canberra | Sydney | Melbourne | Brisbane | Adelaide | Perth | Hobart | Darwin

Other Formats:

Comma delimited format used in spreadsheet applications
http://www.bom.gov.au/fwo/IDN60903/IDN60903.95909.axf

JavaScript Object Notation format (JSON) in row-major order
http://www.bom.gov.au/fwo/IDN60903/IDN60903.95909.json